sensor_id;sensor_type;location;lat;lon;timestamp;P1;durP1;ratioP1;P2;durP2;ratioP2
7657;SDS011;8462;53.156;8.220;2023-07-20T00:02:02;2.03;;;1.20;;
7657;SDS011;8462;53.156;8.220;2023-07-20T00:04:30;1.87;;;1.47;;
7657;SDS011;8462;53.156;8.220;2023-07-20T00:06:58;2.27;;;1.27;;
7657;SDS011;8462;53.156;8.220;2023-07-20T00:09:26;3.80;;;1.27;;
7657;SDS011;8462;53.156;8.220;2023-07-20T00:11:54;2.20;;;1.30;;
7657;SDS011;8462;53.156;8.220;2023-07-20T00:14:21;1.53;;;1.17;;
7657;SDS011;8462;53.156;8.220;2023-07-20T00:16:49;2.23;;;1.30;;
7657;SDS011;8462;53.156;8.220;2023-07-20T00:19:20;1.30;;;1.20;;
7657;SDS011;8462;53.156;8.220;2023-07-20T00:21:47;2.23;;;1.23;;
7657;SDS011;8462;53.156;8.220;2023-07-20T00:24:14;2.00;;;1.57;;
7657;SDS011;8462;53.156;8.220;2023-07-20T00:26:42;1.90;;;1.30;;
7657;SDS011;8462;53.156;8.220;2023-07-20T00:29:10;1.70;;;1.30;;
7657;SDS011;8462;53.156;8.220;2023-07-20T00:31:39;2.60;;;1.37;;
7657;SDS011;8462;53.156;8.220;2023-07-20T00:34:06;1.57;;;1.30;;
7657;SDS011;8462;53.156;8.220;2023-07-20T00:36:33;1.23;;;1.13;;
7657;SDS011;8462;53.156;8.220;2023-07-20T00:39:01;1.70;;;1.30;;
7657;SDS011;8462;53.156;8.220;2023-07-20T00:41:28;1.50;;;1.33;;
7657;SDS011;8462;53.156;8.220;2023-07-20T00:43:55;1.70;;;1.30;;
7657;SDS011;8462;53.156;8.220;2023-07-20T00:46:23;1.60;;;1.50;;
7657;SDS011;8462;53.156;8.220;2023-07-20T00:48:51;2.23;;;1.63;;
7657;SDS011;8462;53.156;8.220;2023-07-20T00:51:19;1.23;;;1.10;;
7657;SDS011;8462;53.156;8.220;2023-07-20T00:53:47;1.40;;;1.30;;
7657;SDS011;8462;53.156;8.220;2023-07-20T00:56:14;2.57;;;1.40;;
7657;SDS011;8462;53.156;8.220;2023-07-20T00:58:41;1.70;;;1.60;;
7657;SDS011;8462;53.156;8.220;2023-07-20T01:01:08;2.03;;;1.80;;
7657;SDS011;8462;53.156;8.220;2023-07-20T01:03:36;2.10;;;1.83;;
7657;SDS011;8462;53.156;8.220;2023-07-20T01:06:07;3.20;;;1.83;;
7657;SDS011;8462;53.156;8.220;2023-07-20T01:08:43;2.53;;;1.60;;
7657;SDS011;8462;53.156;8.220;2023-07-20T01:11:16;2.13;;;1.70;;
7657;SDS011;8462;53.156;8.220;2023-07-20T01:13:49;2.60;;;1.50;;
7657;SDS011;8462;53.156;8.220;2023-07-20T01:16:17;1.70;;;1.50;;
7657;SDS011;8462;53.156;8.220;2023-07-20T01:18:45;1.90;;;1.70;;
7657;SDS011;8462;53.156;8.220;2023-07-20T01:21:13;2.20;;;1.83;;
7657;SDS011;8462;53.156;8.220;2023-07-20T01:23:56;2.40;;;1.50;;
7657;SDS011;8462;53.156;8.220;2023-07-20T01:29:52;2.10;;;1.33;;
7657;SDS011;8462;53.156;8.220;2023-07-20T01:32:31;2.37;;;1.50;;
7657;SDS011;8462;53.156;8.220;2023-07-20T01:35:01;1.97;;;1.80;;
7657;SDS011;8462;53.156;8.220;2023-07-20T01:37:33;1.37;;;1.27;;
7657;SDS011;8462;53.156;8.220;2023-07-20T01:40:00;1.70;;;1.53;;
7657;SDS011;8462;53.156;8.220;2023-07-20T01:42:27;1.27;;;1.17;;
7657;SDS011;8462;53.156;8.220;2023-07-20T01:44:55;2.60;;;1.80;;
7657;SDS011;8462;53.156;8.220;2023-07-20T01:47:24;1.73;;;1.57;;
7657;SDS011;8462;53.156;8.220;2023-07-20T01:49:52;1.63;;;1.53;;
7657;SDS011;8462;53.156;8.220;2023-07-20T01:52:20;1.57;;;1.47;;
7657;SDS011;8462;53.156;8.220;2023-07-20T01:54:47;1.70;;;1.40;;
7657;SDS011;8462;53.156;8.220;2023-07-20T01:57:14;1.53;;;1.40;;
7657;SDS011;8462;53.156;8.220;2023-07-20T01:59:41;5.03;;;1.70;;
7657;SDS011;8462;53.156;8.220;2023-07-20T02:02:08;1.97;;;1.40;;
7657;SDS011;8462;53.156;8.220;2023-07-20T02:04:35;1.83;;;1.60;;
7657;SDS011;8462;53.156;8.220;2023-07-20T02:07:03;2.33;;;1.80;;
7657;SDS011;8462;53.156;8.220;2023-07-20T02:09:30;2.53;;;1.60;;
7657;SDS011;8462;53.156;8.220;2023-07-20T02:11:57;2.10;;;1.30;;
7657;SDS011;8462;53.156;8.220;2023-07-20T02:14:24;1.97;;;1.63;;
7657;SDS011;8462;53.156;8.220;2023-07-20T02:16:51;2.50;;;1.50;;
7657;SDS011;8462;53.156;8.220;2023-07-20T02:19:26;2.20;;;2.00;;
7657;SDS011;8462;53.156;8.220;2023-07-20T02:21:52;2.33;;;1.80;;
7657;SDS011;8462;53.156;8.220;2023-07-20T02:24:21;2.13;;;1.93;;
7657;SDS011;8462;53.156;8.220;2023-07-20T02:26:48;4.53;;;2.30;;
7657;SDS011;8462;53.156;8.220;2023-07-20T02:29:15;4.47;;;2.50;;
7657;SDS011;8462;53.156;8.220;2023-07-20T02:31:42;3.27;;;2.50;;
7657;SDS011;8462;53.156;8.220;2023-07-20T02:34:09;2.60;;;2.37;;
7657;SDS011;8462;53.156;8.220;2023-07-20T02:36:36;2.57;;;2.20;;
7657;SDS011;8462;53.156;8.220;2023-07-20T02:39:03;2.50;;;2.30;;
7657;SDS011;8462;53.156;8.220;2023-07-20T02:41:32;2.70;;;2.43;;
7657;SDS011;8462;53.156;8.220;2023-07-20T02:44:00;2.83;;;2.50;;
7657;SDS011;8462;53.156;8.220;2023-07-20T02:46:28;2.57;;;2.17;;
7657;SDS011;8462;53.156;8.220;2023-07-20T02:48:56;2.80;;;2.30;;
7657;SDS011;8462;53.156;8.220;2023-07-20T02:51:22;4.27;;;2.73;;
7657;SDS011;8462;53.156;8.220;2023-07-20T02:53:49;4.83;;;2.87;;
7657;SDS011;8462;53.156;8.220;2023-07-20T02:56:16;2.87;;;2.63;;
7657;SDS011;8462;53.156;8.220;2023-07-20T02:58:45;3.97;;;2.80;;
7657;SDS011;8462;53.156;8.220;2023-07-20T03:01:12;2.93;;;2.67;;
7657;SDS011;8462;53.156;8.220;2023-07-20T03:03:40;4.47;;;3.30;;
7657;SDS011;8462;53.156;8.220;2023-07-20T03:06:11;5.23;;;3.10;;
7657;SDS011;8462;53.156;8.220;2023-07-20T03:08:39;6.30;;;3.33;;
7657;SDS011;8462;53.156;8.220;2023-07-20T03:11:10;4.23;;;3.20;;
7657;SDS011;8462;53.156;8.220;2023-07-20T03:13:38;5.63;;;3.30;;
7657;SDS011;8462;53.156;8.220;2023-07-20T03:16:07;4.50;;;3.50;;
7657;SDS011;8462;53.156;8.220;2023-07-20T03:18:36;4.30;;;3.90;;
7657;SDS011;8462;53.156;8.220;2023-07-20T03:21:04;3.83;;;3.43;;
7657;SDS011;8462;53.156;8.220;2023-07-20T03:23:31;4.30;;;3.40;;
7657;SDS011;8462;53.156;8.220;2023-07-20T03:25:58;3.77;;;3.37;;
7657;SDS011;8462;53.156;8.220;2023-07-20T03:28:25;4.77;;;4.27;;
7657;SDS011;8462;53.156;8.220;2023-07-20T03:30:53;6.23;;;3.43;;
7657;SDS011;8462;53.156;8.220;2023-07-20T03:33:22;4.07;;;3.20;;
7657;SDS011;8462;53.156;8.220;2023-07-20T03:35:51;4.63;;;3.00;;
7657;SDS011;8462;53.156;8.220;2023-07-20T03:38:18;8.67;;;3.83;;
7657;SDS011;8462;53.156;8.220;2023-07-20T03:40:51;5.60;;;3.60;;
7657;SDS011;8462;53.156;8.220;2023-07-20T03:43:18;4.20;;;3.40;;
7657;SDS011;8462;53.156;8.220;2023-07-20T03:45:46;4.37;;;3.43;;
7657;SDS011;8462;53.156;8.220;2023-07-20T03:48:14;4.10;;;3.20;;
7657;SDS011;8462;53.156;8.220;2023-07-20T03:50:43;4.33;;;3.30;;
7657;SDS011;8462;53.156;8.220;2023-07-20T03:53:10;4.10;;;3.07;;
7657;SDS011;8462;53.156;8.220;2023-07-20T03:55:37;3.77;;;3.40;;
7657;SDS011;8462;53.156;8.220;2023-07-20T03:58:05;3.37;;;2.97;;
7657;SDS011;8462;53.156;8.220;2023-07-20T04:00:33;4.93;;;3.67;;
7657;SDS011;8462;53.156;8.220;2023-07-20T04:03:00;5.93;;;3.43;;
7657;SDS011;8462;53.156;8.220;2023-07-20T04:05:27;19.17;;;13.13;;
7657;SDS011;8462;53.156;8.220;2023-07-20T04:07:55;9.77;;;6.23;;
7657;SDS011;8462;53.156;8.220;2023-07-20T04:10:22;6.27;;;3.33;;
7657;SDS011;8462;53.156;8.220;2023-07-20T04:12:51;4.60;;;3.37;;
7657;SDS011;8462;53.156;8.220;2023-07-20T04:15:18;3.63;;;3.33;;
7657;SDS011;8462;53.156;8.220;2023-07-20T04:17:45;3.80;;;2.93;;
7657;SDS011;8462;53.156;8.220;2023-07-20T04:20:12;4.23;;;3.03;;
7657;SDS011;8462;53.156;8.220;2023-07-20T04:22:39;4.20;;;3.27;;
7657;SDS011;8462;53.156;8.220;2023-07-20T04:25:11;3.17;;;2.83;;
7657;SDS011;8462;53.156;8.220;2023-07-20T04:27:38;4.50;;;3.30;;
7657;SDS011;8462;53.156;8.220;2023-07-20T04:30:06;4.33;;;3.20;;
7657;SDS011;8462;53.156;8.220;2023-07-20T04:32:34;4.53;;;3.10;;
7657;SDS011;8462;53.156;8.220;2023-07-20T04:35:05;5.77;;;2.60;;
7657;SDS011;8462;53.156;8.220;2023-07-20T04:37:36;4.70;;;3.43;;
7657;SDS011;8462;53.156;8.220;2023-07-20T04:40:04;4.60;;;3.80;;
7657;SDS011;8462;53.156;8.220;2023-07-20T04:42:33;3.03;;;2.70;;
7657;SDS011;8462;53.156;8.220;2023-07-20T04:45:00;4.30;;;3.00;;
7657;SDS011;8462;53.156;8.220;2023-07-20T04:47:27;3.50;;;2.90;;
7657;SDS011;8462;53.156;8.220;2023-07-20T04:49:54;3.20;;;2.70;;
7657;SDS011;8462;53.156;8.220;2023-07-20T04:52:21;4.03;;;3.40;;
7657;SDS011;8462;53.156;8.220;2023-07-20T04:54:49;2.60;;;2.40;;
7657;SDS011;8462;53.156;8.220;2023-07-20T04:57:19;4.30;;;2.73;;
7657;SDS011;8462;53.156;8.220;2023-07-20T04:59:51;4.47;;;3.00;;
7657;SDS011;8462;53.156;8.220;2023-07-20T05:02:18;4.13;;;3.20;;
7657;SDS011;8462;53.156;8.220;2023-07-20T05:04:45;3.47;;;2.67;;
7657;SDS011;8462;53.156;8.220;2023-07-20T05:07:12;3.53;;;2.60;;
7657;SDS011;8462;53.156;8.220;2023-07-20T05:09:39;4.57;;;2.53;;
7657;SDS011;8462;53.156;8.220;2023-07-20T05:12:06;2.77;;;2.33;;
7657;SDS011;8462;53.156;8.220;2023-07-20T05:14:33;3.47;;;2.37;;
7657;SDS011;8462;53.156;8.220;2023-07-20T05:17:01;2.83;;;1.93;;
7657;SDS011;8462;53.156;8.220;2023-07-20T05:19:28;2.30;;;2.10;;
7657;SDS011;8462;53.156;8.220;2023-07-20T05:21:55;2.37;;;1.80;;
7657;SDS011;8462;53.156;8.220;2023-07-20T05:24:22;1.63;;;1.45;;
7657;SDS011;8462;53.156;8.220;2023-07-20T05:26:49;2.30;;;1.50;;
7657;SDS011;8462;53.156;8.220;2023-07-20T05:29:16;2.35;;;1.70;;
7657;SDS011;8462;53.156;8.220;2023-07-20T05:31:43;2.13;;;1.35;;
7657;SDS011;8462;53.156;8.220;2023-07-20T05:34:11;1.20;;;1.10;;
7657;SDS011;8462;53.156;8.220;2023-07-20T05:36:38;1.50;;;1.25;;
7657;SDS011;8462;53.156;8.220;2023-07-20T05:39:05;1.67;;;1.20;;
7657;SDS011;8462;53.156;8.220;2023-07-20T05:41:32;1.42;;;1.20;;
7657;SDS011;8462;53.156;8.220;2023-07-20T05:43:59;2.10;;;1.38;;
7657;SDS011;8462;53.156;8.220;2023-07-20T05:46:26;1.08;;;0.98;;
7657;SDS011;8462;53.156;8.220;2023-07-20T05:48:53;1.20;;;1.10;;
7657;SDS011;8462;53.156;8.220;2023-07-20T05:51:21;1.60;;;1.20;;
7657;SDS011;8462;53.156;8.220;2023-07-20T05:53:48;3.05;;;1.88;;
7657;SDS011;8462;53.156;8.220;2023-07-20T05:56:15;1.23;;;0.93;;
7657;SDS011;8462;53.156;8.220;2023-07-20T05:58:42;1.23;;;1.00;;
7657;SDS011;8462;53.156;8.220;2023-07-20T06:01:09;1.17;;;1.08;;
7657;SDS011;8462;53.156;8.220;2023-07-20T06:03:36;1.33;;;1.17;;
7657;SDS011;8462;53.156;8.220;2023-07-20T06:06:03;2.92;;;1.52;;
7657;SDS011;8462;53.156;8.220;2023-07-20T06:08:33;1.20;;;1.00;;
7657;SDS011;8462;53.156;8.220;2023-07-20T06:11:00;1.38;;;0.80;;
7657;SDS011;8462;53.156;8.220;2023-07-20T06:13:27;1.30;;;0.95;;
7657;SDS011;8462;53.156;8.220;2023-07-20T06:15:55;0.73;;;0.60;;
7657;SDS011;8462;53.156;8.220;2023-07-20T06:18:22;4.00;;;0.82;;
7657;SDS011;8462;53.156;8.220;2023-07-20T06:20:49;2.47;;;0.80;;
7657;SDS011;8462;53.156;8.220;2023-07-20T06:23:16;2.75;;;1.02;;
7657;SDS011;8462;53.156;8.220;2023-07-20T06:25:45;1.30;;;1.00;;
7657;SDS011;8462;53.156;8.220;2023-07-20T06:28:12;1.10;;;0.80;;
7657;SDS011;8462;53.156;8.220;2023-07-20T06:30:39;2.60;;;1.00;;
7657;SDS011;8462;53.156;8.220;2023-07-20T06:33:06;1.20;;;1.10;;
7657;SDS011;8462;53.156;8.220;2023-07-20T06:35:34;1.48;;;0.80;;
7657;SDS011;8462;53.156;8.220;2023-07-20T06:38:01;1.90;;;0.80;;
7657;SDS011;8462;53.156;8.220;2023-07-20T06:40:29;0.70;;;0.70;;
7657;SDS011;8462;53.156;8.220;2023-07-20T06:42:57;2.75;;;0.98;;
7657;SDS011;8462;53.156;8.220;2023-07-20T06:45:24;3.50;;;1.02;;
7657;SDS011;8462;53.156;8.220;2023-07-20T06:47:53;1.00;;;0.70;;
7657;SDS011;8462;53.156;8.220;2023-07-20T06:50:19;1.58;;;0.80;;
7657;SDS011;8462;53.156;8.220;2023-07-20T06:52:47;3.88;;;0.98;;
7657;SDS011;8462;53.156;8.220;2023-07-20T06:55:14;2.85;;;1.05;;
7657;SDS011;8462;53.156;8.220;2023-07-20T06:57:41;1.27;;;0.85;;
7657;SDS011;8462;53.156;8.220;2023-07-20T07:00:10;2.50;;;0.98;;
7657;SDS011;8462;53.156;8.220;2023-07-20T07:02:40;1.33;;;0.88;;
7657;SDS011;8462;53.156;8.220;2023-07-20T07:05:07;2.67;;;0.80;;
7657;SDS011;8462;53.156;8.220;2023-07-20T07:07:34;1.95;;;0.90;;
7657;SDS011;8462;53.156;8.220;2023-07-20T07:10:01;1.02;;;0.63;;
7657;SDS011;8462;53.156;8.220;2023-07-20T07:12:30;1.75;;;0.90;;
7657;SDS011;8462;53.156;8.220;2023-07-20T07:14:57;0.60;;;0.60;;
7657;SDS011;8462;53.156;8.220;2023-07-20T07:17:26;2.58;;;0.98;;
7657;SDS011;8462;53.156;8.220;2023-07-20T07:19:55;0.98;;;0.80;;
7657;SDS011;8462;53.156;8.220;2023-07-20T07:22:21;1.40;;;0.75;;
7657;SDS011;8462;53.156;8.220;2023-07-20T07:24:49;1.45;;;0.63;;
7657;SDS011;8462;53.156;8.220;2023-07-20T07:27:18;2.33;;;0.77;;
7657;SDS011;8462;53.156;8.220;2023-07-20T07:29:45;4.78;;;1.27;;
7657;SDS011;8462;53.156;8.220;2023-07-20T07:32:14;1.45;;;1.10;;
7657;SDS011;8462;53.156;8.220;2023-07-20T07:34:43;2.67;;;1.13;;
7657;SDS011;8462;53.156;8.220;2023-07-20T07:37:11;1.92;;;1.00;;
7657;SDS011;8462;53.156;8.220;2023-07-20T07:39:39;2.78;;;0.95;;
7657;SDS011;8462;53.156;8.220;2023-07-20T07:42:06;1.50;;;0.75;;
7657;SDS011;8462;53.156;8.220;2023-07-20T07:44:33;3.95;;;1.25;;
7657;SDS011;8462;53.156;8.220;2023-07-20T07:46:59;1.25;;;0.80;;
7657;SDS011;8462;53.156;8.220;2023-07-20T07:49:28;0.82;;;0.70;;
7657;SDS011;8462;53.156;8.220;2023-07-20T07:51:56;3.45;;;1.75;;
7657;SDS011;8462;53.156;8.220;2023-07-20T07:54:23;1.20;;;0.98;;
7657;SDS011;8462;53.156;8.220;2023-07-20T07:56:50;2.47;;;0.82;;
7657;SDS011;8462;53.156;8.220;2023-07-20T07:59:17;1.27;;;0.98;;
7657;SDS011;8462;53.156;8.220;2023-07-20T08:01:44;1.07;;;0.80;;
7657;SDS011;8462;53.156;8.220;2023-07-20T08:04:11;1.67;;;1.03;;
7657;SDS011;8462;53.156;8.220;2023-07-20T08:06:38;3.40;;;1.20;;
7657;SDS011;8462;53.156;8.220;2023-07-20T08:09:07;1.30;;;0.97;;
7657;SDS011;8462;53.156;8.220;2023-07-20T08:11:33;1.20;;;1.10;;
7657;SDS011;8462;53.156;8.220;2023-07-20T08:14:01;4.43;;;1.00;;
7657;SDS011;8462;53.156;8.220;2023-07-20T08:16:29;2.50;;;1.00;;
7657;SDS011;8462;53.156;8.220;2023-07-20T08:18:56;2.73;;;1.17;;
7657;SDS011;8462;53.156;8.220;2023-07-20T08:21:23;2.23;;;0.97;;
7657;SDS011;8462;53.156;8.220;2023-07-20T08:23:50;2.57;;;1.20;;
7657;SDS011;8462;53.156;8.220;2023-07-20T08:26:24;1.70;;;0.97;;
7657;SDS011;8462;53.156;8.220;2023-07-20T08:28:51;4.13;;;1.10;;
7657;SDS011;8462;53.156;8.220;2023-07-20T08:31:19;1.53;;;1.40;;
7657;SDS011;8462;53.156;8.220;2023-07-20T08:33:47;2.87;;;1.20;;
7657;SDS011;8462;53.156;8.220;2023-07-20T08:36:14;2.10;;;1.10;;
7657;SDS011;8462;53.156;8.220;2023-07-20T08:38:41;2.80;;;1.17;;
7657;SDS011;8462;53.156;8.220;2023-07-20T08:41:08;2.77;;;1.40;;
7657;SDS011;8462;53.156;8.220;2023-07-20T08:43:37;3.57;;;1.30;;
7657;SDS011;8462;53.156;8.220;2023-07-20T08:46:05;3.23;;;1.37;;
7657;SDS011;8462;53.156;8.220;2023-07-20T08:48:32;3.53;;;1.33;;
7657;SDS011;8462;53.156;8.220;2023-07-20T08:51:00;4.90;;;1.83;;
7657;SDS011;8462;53.156;8.220;2023-07-20T08:53:30;2.57;;;1.10;;
7657;SDS011;8462;53.156;8.220;2023-07-20T08:55:59;3.17;;;1.30;;
7657;SDS011;8462;53.156;8.220;2023-07-20T08:58:32;3.00;;;1.40;;
7657;SDS011;8462;53.156;8.220;2023-07-20T09:01:03;2.50;;;1.60;;
7657;SDS011;8462;53.156;8.220;2023-07-20T09:03:30;4.03;;;1.20;;
7657;SDS011;8462;53.156;8.220;2023-07-20T09:05:59;2.10;;;1.27;;
7657;SDS011;8462;53.156;8.220;2023-07-20T09:08:26;2.50;;;1.43;;
7657;SDS011;8462;53.156;8.220;2023-07-20T09:10:53;3.43;;;1.20;;
7657;SDS011;8462;53.156;8.220;2023-07-20T09:13:20;3.07;;;1.27;;
7657;SDS011;8462;53.156;8.220;2023-07-20T09:15:48;2.70;;;1.93;;
7657;SDS011;8462;53.156;8.220;2023-07-20T09:18:27;3.33;;;1.37;;
7657;SDS011;8462;53.156;8.220;2023-07-20T09:20:59;1.63;;;1.37;;
7657;SDS011;8462;53.156;8.220;2023-07-20T09:23:32;1.93;;;1.27;;
7657;SDS011;8462;53.156;8.220;2023-07-20T09:25:59;4.20;;;1.40;;
7657;SDS011;8462;53.156;8.220;2023-07-20T09:28:27;4.07;;;1.50;;
7657;SDS011;8462;53.156;8.220;2023-07-20T09:30:54;1.70;;;1.37;;
7657;SDS011;8462;53.156;8.220;2023-07-20T09:33:24;4.90;;;1.43;;
7657;SDS011;8462;53.156;8.220;2023-07-20T09:35:52;2.47;;;1.60;;
7657;SDS011;8462;53.156;8.220;2023-07-20T09:38:19;4.47;;;1.50;;
7657;SDS011;8462;53.156;8.220;2023-07-20T09:40:48;3.83;;;1.60;;
7657;SDS011;8462;53.156;8.220;2023-07-20T09:43:17;2.80;;;1.20;;
7657;SDS011;8462;53.156;8.220;2023-07-20T09:45:45;2.97;;;1.10;;
7657;SDS011;8462;53.156;8.220;2023-07-20T09:48:12;3.07;;;1.37;;
7657;SDS011;8462;53.156;8.220;2023-07-20T09:50:39;7.43;;;1.70;;
7657;SDS011;8462;53.156;8.220;2023-07-20T09:53:11;2.37;;;1.30;;
7657;SDS011;8462;53.156;8.220;2023-07-20T09:55:40;2.30;;;1.50;;
7657;SDS011;8462;53.156;8.220;2023-07-20T09:58:11;3.57;;;1.30;;
7657;SDS011;8462;53.156;8.220;2023-07-20T10:00:39;4.20;;;1.77;;
7657;SDS011;8462;53.156;8.220;2023-07-20T10:03:08;2.17;;;1.73;;
7657;SDS011;8462;53.156;8.220;2023-07-20T10:05:39;1.97;;;1.30;;
7657;SDS011;8462;53.156;8.220;2023-07-20T10:08:12;3.20;;;1.30;;
7657;SDS011;8462;53.156;8.220;2023-07-20T10:10:41;3.37;;;1.70;;
7657;SDS011;8462;53.156;8.220;2023-07-20T10:13:10;4.30;;;1.60;;
7657;SDS011;8462;53.156;8.220;2023-07-20T10:15:43;1.90;;;1.37;;
7657;SDS011;8462;53.156;8.220;2023-07-20T10:18:14;2.50;;;1.47;;
7657;SDS011;8462;53.156;8.220;2023-07-20T10:20:48;3.47;;;1.63;;
7657;SDS011;8462;53.156;8.220;2023-07-20T10:23:19;1.53;;;1.20;;
7657;SDS011;8462;53.156;8.220;2023-07-20T10:25:48;3.10;;;1.60;;
7657;SDS011;8462;53.156;8.220;2023-07-20T10:28:17;2.20;;;1.40;;
7657;SDS011;8462;53.156;8.220;2023-07-20T10:30:44;2.30;;;1.17;;
7657;SDS011;8462;53.156;8.220;2023-07-20T10:33:12;1.60;;;1.00;;
7657;SDS011;8462;53.156;8.220;2023-07-20T10:35:53;1.10;;;0.80;;
7657;SDS011;8462;53.156;8.220;2023-07-20T10:41:22;1.77;;;1.17;;
7657;SDS011;8462;53.156;8.220;2023-07-20T10:44:00;1.83;;;1.03;;
7657;SDS011;8462;53.156;8.220;2023-07-20T10:46:45;1.57;;;0.97;;
7657;SDS011;8462;53.156;8.220;2023-07-20T10:49:18;0.87;;;0.63;;
7657;SDS011;8462;53.156;8.220;2023-07-20T10:51:55;1.77;;;0.80;;
7657;SDS011;8462;53.156;8.220;2023-07-20T10:57:22;0.70;;;0.70;;
7657;SDS011;8462;53.156;8.220;2023-07-20T11:00:10;1.37;;;0.80;;
7657;SDS011;8462;53.156;8.220;2023-07-20T11:02:44;0.80;;;0.70;;
7657;SDS011;8462;53.156;8.220;2023-07-20T11:05:32;1.67;;;0.70;;
7657;SDS011;8462;53.156;8.220;2023-07-20T11:08:10;3.60;;;0.80;;
7657;SDS011;8462;53.156;8.220;2023-07-20T11:10:40;1.88;;;0.88;;
7657;SDS011;8462;53.156;8.220;2023-07-20T11:13:18;0.60;;;0.60;;
7657;SDS011;8462;53.156;8.220;2023-07-20T11:15:47;2.25;;;0.70;;
7657;SDS011;8462;53.156;8.220;2023-07-20T11:18:27;0.85;;;0.70;;
7657;SDS011;8462;53.156;8.220;2023-07-20T11:20:54;1.30;;;0.68;;
7657;SDS011;8462;53.156;8.220;2023-07-20T11:23:22;1.17;;;0.60;;
7657;SDS011;8462;53.156;8.220;2023-07-20T11:25:52;1.60;;;1.00;;
7657;SDS011;8462;53.156;8.220;2023-07-20T11:28:20;0.70;;;0.65;;
7657;SDS011;8462;53.156;8.220;2023-07-20T11:30:50;0.67;;;0.63;;
7657;SDS011;8462;53.156;8.220;2023-07-20T11:33:20;1.70;;;0.90;;
7657;SDS011;8462;53.156;8.220;2023-07-20T11:35:48;1.97;;;0.87;;
7657;SDS011;8462;53.156;8.220;2023-07-20T11:38:19;1.63;;;1.10;;
7657;SDS011;8462;53.156;8.220;2023-07-20T11:40:47;2.47;;;0.93;;
7657;SDS011;8462;53.156;8.220;2023-07-20T11:43:15;2.97;;;0.80;;
7657;SDS011;8462;53.156;8.220;2023-07-20T11:45:43;3.13;;;1.00;;
7657;SDS011;8462;53.156;8.220;2023-07-20T11:48:14;1.97;;;1.00;;
7657;SDS011;8462;53.156;8.220;2023-07-20T11:50:41;2.70;;;1.23;;
7657;SDS011;8462;53.156;8.220;2023-07-20T11:53:08;1.67;;;1.00;;
7657;SDS011;8462;53.156;8.220;2023-07-20T11:55:36;2.50;;;0.97;;
7657;SDS011;8462;53.156;8.220;2023-07-20T11:58:04;1.67;;;0.70;;
7657;SDS011;8462;53.156;8.220;2023-07-20T12:00:34;2.43;;;0.80;;
7657;SDS011;8462;53.156;8.220;2023-07-20T12:03:04;2.20;;;0.93;;
7657;SDS011;8462;53.156;8.220;2023-07-20T12:05:33;1.63;;;0.80;;
7657;SDS011;8462;53.156;8.220;2023-07-20T12:08:00;1.37;;;0.73;;
7657;SDS011;8462;53.156;8.220;2023-07-20T12:10:28;2.23;;;0.90;;
7657;SDS011;8462;53.156;8.220;2023-07-20T12:13:00;1.43;;;0.60;;
7657;SDS011;8462;53.156;8.220;2023-07-20T12:15:29;0.90;;;0.67;;
7657;SDS011;8462;53.156;8.220;2023-07-20T12:17:59;1.50;;;0.70;;
7657;SDS011;8462;53.156;8.220;2023-07-20T12:20:27;1.20;;;0.87;;
7657;SDS011;8462;53.156;8.220;2023-07-20T12:22:57;1.23;;;0.90;;
7657;SDS011;8462;53.156;8.220;2023-07-20T12:25:38;1.43;;;1.23;;
7657;SDS011;8462;53.156;8.220;2023-07-20T12:28:06;2.50;;;0.67;;
7657;SDS011;8462;53.156;8.220;2023-07-20T12:30:36;1.23;;;0.80;;
7657;SDS011;8462;53.156;8.220;2023-07-20T12:33:05;1.70;;;0.70;;
7657;SDS011;8462;53.156;8.220;2023-07-20T12:35:36;2.40;;;0.80;;
7657;SDS011;8462;53.156;8.220;2023-07-20T12:38:03;1.83;;;0.80;;
7657;SDS011;8462;53.156;8.220;2023-07-20T12:40:31;3.80;;;0.80;;
7657;SDS011;8462;53.156;8.220;2023-07-20T12:42:58;1.47;;;0.70;;
7657;SDS011;8462;53.156;8.220;2023-07-20T12:45:25;2.73;;;0.80;;
7657;SDS011;8462;53.156;8.220;2023-07-20T12:47:53;1.57;;;0.87;;
7657;SDS011;8462;53.156;8.220;2023-07-20T12:50:21;2.13;;;0.73;;
7657;SDS011;8462;53.156;8.220;2023-07-20T12:52:48;2.33;;;0.80;;
7657;SDS011;8462;53.156;8.220;2023-07-20T12:55:15;1.60;;;0.97;;
7657;SDS011;8462;53.156;8.220;2023-07-20T12:57:43;0.97;;;0.70;;
7657;SDS011;8462;53.156;8.220;2023-07-20T13:00:10;1.00;;;0.80;;
7657;SDS011;8462;53.156;8.220;2023-07-20T13:02:38;2.63;;;0.80;;
7657;SDS011;8462;53.156;8.220;2023-07-20T13:05:05;3.20;;;0.90;;
7657;SDS011;8462;53.156;8.220;2023-07-20T13:07:34;1.73;;;0.83;;
7657;SDS011;8462;53.156;8.220;2023-07-20T13:10:02;2.07;;;0.83;;
7657;SDS011;8462;53.156;8.220;2023-07-20T13:12:33;0.80;;;0.80;;
7657;SDS011;8462;53.156;8.220;2023-07-20T13:15:02;3.27;;;0.87;;
7657;SDS011;8462;53.156;8.220;2023-07-20T13:17:32;2.63;;;0.83;;
7657;SDS011;8462;53.156;8.220;2023-07-20T13:20:00;3.47;;;1.00;;
7657;SDS011;8462;53.156;8.220;2023-07-20T13:22:28;1.53;;;0.93;;
7657;SDS011;8462;53.156;8.220;2023-07-20T13:24:58;2.40;;;0.80;;
7657;SDS011;8462;53.156;8.220;2023-07-20T13:27:25;1.60;;;0.87;;
7657;SDS011;8462;53.156;8.220;2023-07-20T13:29:53;3.10;;;0.70;;
7657;SDS011;8462;53.156;8.220;2023-07-20T13:32:23;2.10;;;1.00;;
7657;SDS011;8462;53.156;8.220;2023-07-20T13:34:50;2.50;;;0.77;;
7657;SDS011;8462;53.156;8.220;2023-07-20T13:37:17;1.03;;;0.90;;
7657;SDS011;8462;53.156;8.220;2023-07-20T13:39:44;2.03;;;0.80;;
7657;SDS011;8462;53.156;8.220;2023-07-20T13:42:13;1.80;;;0.70;;
7657;SDS011;8462;53.156;8.220;2023-07-20T13:44:40;2.20;;;0.97;;
7657;SDS011;8462;53.156;8.220;2023-07-20T13:47:07;1.17;;;0.80;;
7657;SDS011;8462;53.156;8.220;2023-07-20T13:49:34;1.67;;;0.93;;
7657;SDS011;8462;53.156;8.220;2023-07-20T13:52:01;1.27;;;0.87;;
7657;SDS011;8462;53.156;8.220;2023-07-20T13:54:29;3.00;;;1.37;;
7657;SDS011;8462;53.156;8.220;2023-07-20T13:56:57;1.00;;;0.83;;
7657;SDS011;8462;53.156;8.220;2023-07-20T13:59:26;3.63;;;0.80;;
7657;SDS011;8462;53.156;8.220;2023-07-20T14:04:29;1.43;;;1.17;;
7657;SDS011;8462;53.156;8.220;2023-07-20T14:06:59;2.80;;;1.13;;
7657;SDS011;8462;53.156;8.220;2023-07-20T14:09:26;2.30;;;0.80;;
7657;SDS011;8462;53.156;8.220;2023-07-20T14:11:53;1.20;;;0.90;;
7657;SDS011;8462;53.156;8.220;2023-07-20T14:14:21;1.60;;;1.30;;
7657;SDS011;8462;53.156;8.220;2023-07-20T14:16:49;1.63;;;0.87;;
7657;SDS011;8462;53.156;8.220;2023-07-20T14:19:16;1.60;;;1.17;;
7657;SDS011;8462;53.156;8.220;2023-07-20T14:21:43;2.83;;;0.90;;
7657;SDS011;8462;53.156;8.220;2023-07-20T14:24:10;1.93;;;0.80;;
7657;SDS011;8462;53.156;8.220;2023-07-20T14:26:38;2.80;;;1.20;;
7657;SDS011;8462;53.156;8.220;2023-07-20T14:29:06;0.97;;;0.90;;
7657;SDS011;8462;53.156;8.220;2023-07-20T14:31:33;1.07;;;0.80;;
7657;SDS011;8462;53.156;8.220;2023-07-20T14:34:05;2.37;;;0.80;;
7657;SDS011;8462;53.156;8.220;2023-07-20T14:36:32;0.87;;;0.80;;
7657;SDS011;8462;53.156;8.220;2023-07-20T14:38:59;1.83;;;0.90;;
7657;SDS011;8462;53.156;8.220;2023-07-20T14:41:26;1.83;;;0.90;;
7657;SDS011;8462;53.156;8.220;2023-07-20T14:43:53;1.30;;;0.90;;
7657;SDS011;8462;53.156;8.220;2023-07-20T14:46:21;3.00;;;1.43;;
7657;SDS011;8462;53.156;8.220;2023-07-20T14:48:48;2.20;;;0.90;;
7657;SDS011;8462;53.156;8.220;2023-07-20T14:51:18;2.37;;;1.20;;
7657;SDS011;8462;53.156;8.220;2023-07-20T14:53:51;2.80;;;1.10;;
7657;SDS011;8462;53.156;8.220;2023-07-20T14:56:18;1.80;;;0.90;;
7657;SDS011;8462;53.156;8.220;2023-07-20T14:58:45;1.50;;;0.80;;
7657;SDS011;8462;53.156;8.220;2023-07-20T15:01:12;4.67;;;1.37;;
7657;SDS011;8462;53.156;8.220;2023-07-20T15:03:41;2.30;;;1.10;;
7657;SDS011;8462;53.156;8.220;2023-07-20T15:06:10;3.77;;;1.10;;
7657;SDS011;8462;53.156;8.220;2023-07-20T15:08:41;1.00;;;0.90;;
7657;SDS011;8462;53.156;8.220;2023-07-20T15:11:08;1.73;;;0.80;;
7657;SDS011;8462;53.156;8.220;2023-07-20T15:13:35;1.33;;;0.97;;
7657;SDS011;8462;53.156;8.220;2023-07-20T15:16:02;3.43;;;0.90;;
7657;SDS011;8462;53.156;8.220;2023-07-20T15:18:29;2.90;;;1.10;;
7657;SDS011;8462;53.156;8.220;2023-07-20T15:20:56;1.00;;;0.90;;
7657;SDS011;8462;53.156;8.220;2023-07-20T15:23:23;3.40;;;1.00;;
7657;SDS011;8462;53.156;8.220;2023-07-20T15:25:51;0.97;;;0.70;;
7657;SDS011;8462;53.156;8.220;2023-07-20T15:28:18;3.80;;;0.87;;
7657;SDS011;8462;53.156;8.220;2023-07-20T15:30:45;1.53;;;1.00;;
7657;SDS011;8462;53.156;8.220;2023-07-20T15:33:12;2.20;;;0.90;;
7657;SDS011;8462;53.156;8.220;2023-07-20T15:35:39;3.80;;;1.40;;